Time;durP1;ratioP1;P1;durP2;ratioP2;P2;SDS_P1;SDS_P2;PMS_P1;PMS_P2;Temp;Humidity;BMP_temperature;BMP_pressure;BME280_temperature;BME280_humidity;BME280_pressure;Samples;Min_cycle;Max_cycle;Signal;HPM_P1;HPM_P2
2022/08/15 00:01:27;;;;;;;9.73;7.10;;;19.50;99.90;;;;;;5052729;28;20117;-65
2022/08/15 00:03:56;;;;;;;13.60;7.03;;;19.50;99.90;;;;;;5064752;28;20085;-64
2022/08/15 00:06:28;;;;;;;10.65;7.60;;;19.50;99.90;;;;;;5069847;28;20041;-66
2022/08/15 00:08:58;;;;;;;9.65;7.20;;;19.40;99.90;;;;;;5073620;28;20036;-64
2022/08/15 00:11:37;;;;;;;8.25;6.80;;;19.40;99.90;;;;;;5069675;28;20037;-64
2022/08/15 00:14:10;;;;;;;8.40;6.85;;;19.40;99.90;;;;;;5076349;28;20093;-66
2022/08/15 00:16:38;;;;;;;11.25;8.18;;;19.40;99.90;;;;;;5061880;28;20128;-66
2022/08/15 00:19:12;;;;;;;11.88;7.57;;;19.30;99.90;;;;;;5053380;28;20509;-65
2022/08/15 00:21:43;;;;;;;10.65;7.55;;;19.30;99.90;;;;;;5057343;28;20070;-65
2022/08/15 00:24:15;;;;;;;12.20;7.68;;;19.30;99.90;;;;;;5061110;28;20112;-66
2022/08/15 00:26:43;;;;;;;12.10;7.88;;;19.30;99.90;;;;;;5056340;28;20070;-66
2022/08/15 00:29:09;;;;;;;11.27;7.85;;;19.20;99.90;;;;;;5059447;28;20239;-65
2022/08/15 00:31:35;;;;;;;;;;;19.20;99.90;;;;;;5054475;28;20548;-65
2022/08/15 00:34:02;;;;;;;11.45;8.57;;;19.10;99.90;;;;;;5053270;28;19928;-65
2022/08/15 00:36:30;;;;;;;10.55;6.45;;;19.10;99.90;;;;;;5062871;28;20045;-65
2022/08/15 00:38:59;;;;;;;8.20;6.57;;;19.10;99.90;;;;;;5058743;28;20115;-65
2022/08/15 00:41:41;;;;;;;14.32;7.05;;;19.10;99.90;;;;;;5055608;28;20040;-66
2022/08/15 00:44:14;;;;;;;9.35;6.68;;;19.00;99.90;;;;;;5061180;28;20037;-64
2022/08/15 00:46:43;;;;;;;14.80;7.00;;;19.00;99.90;;;;;;5048029;28;20052;-68
2022/08/15 00:49:09;;;;;;;12.35;7.72;;;19.00;99.90;;;;;;5054156;28;20040;-66
2022/08/15 00:51:40;;;;;;;11.13;7.22;;;19.00;99.90;;;;;;5055522;28;20033;-65
2022/08/15 00:54:12;;;;;;;9.55;6.75;;;18.90;99.90;;;;;;5061786;28;20838;-64
2022/08/15 00:56:49;;;;;;;10.25;6.50;;;18.90;99.90;;;;;;5056602;28;20052;-64
2022/08/15 00:59:20;;;;;;;10.82;7.10;;;18.90;99.90;;;;;;5061028;28;20040;-66
2022/08/15 01:01:46;;;;;;;13.43;7.65;;;18.90;99.90;;;;;;5057516;28;20040;-65
2022/08/15 01:04:13;;;;;;;;;;;18.90;99.90;;;;;;5055798;28;20340;-65
2022/08/15 01:06:39;;;;;;;8.45;6.45;;;18.90;99.90;;;;;;5053458;28;20023;-65
2022/08/15 01:09:07;;;;;;;8.68;6.88;;;18.80;99.90;;;;;;5060181;28;20040;-65
2022/08/15 01:11:49;;;;;;;13.27;7.32;;;18.80;99.90;;;;;;5054691;28;20120;-66
2022/08/15 01:14:16;;;;;;;9.93;7.70;;;18.70;99.90;;;;;;5047956;28;20038;-65
2022/08/15 01:16:41;;;;;;;9.38;7.40;;;18.70;99.90;;;;;;5047008;28;20037;-65
2022/08/15 01:19:33;;;;;;;;;;;18.60;99.90;;;;;;5059492;28;20037;-65
2022/08/15 01:22:00;;;;;;;9.82;7.97;;;18.60;99.90;;;;;;5044589;28;19942;-64
2022/08/15 01:24:43;;;;;;;12.05;7.93;;;18.60;99.90;;;;;;5056530;28;20086;-65
2022/08/15 01:27:10;;;;;;;9.90;7.63;;;18.60;99.90;;;;;;5049742;28;20063;-64
2022/08/15 01:29:37;;;;;;;15.73;7.53;;;18.60;99.90;;;;;;5054123;28;20070;-65
2022/08/15 01:32:03;;;;;;;9.07;7.57;;;18.60;99.90;;;;;;5052424;28;20124;-65
2022/08/15 01:34:28;;;;;;;11.70;6.97;;;18.60;99.90;;;;;;5036658;28;20048;-66
2022/08/15 01:36:54;;;;;;;;;;;18.60;99.90;;;;;;5053630;28;20042;-65
2022/08/15 01:39:43;;;;;;;12.63;8.02;;;18.60;99.90;;;;;;5058654;28;19924;-65
2022/08/15 01:42:21;;;;;;;9.68;7.13;;;18.60;99.90;;;;;;5056758;28;20047;-65
2022/08/15 01:45:07;;;;;;;13.27;7.13;;;18.60;99.90;;;;;;5053033;28;20040;-65
2022/08/15 01:47:50;;;;;;;9.07;7.35;;;18.50;99.90;;;;;;5046660;28;20479;-65
2022/08/15 01:50:28;;;;;;;8.52;7.03;;;18.50;99.90;;;;;;5060796;28;20037;-66
2022/08/15 01:53:02;;;;;;;9.90;8.05;;;18.40;99.90;;;;;;5049664;28;20438;-65
2022/08/15 01:55:40;;;;;;;9.38;7.65;;;18.40;99.90;;;;;;5054097;28;20049;-65
2022/08/15 01:58:07;;;;;;;10.02;7.10;;;18.30;99.90;;;;;;5051784;28;20690;-64
2022/08/15 02:00:33;;;;;;;9.80;7.90;;;18.30;99.90;;;;;;5054592;28;20051;-64
2022/08/15 02:03:00;;;;;;;9.65;7.20;;;18.30;99.90;;;;;;5051030;28;20497;-65
2022/08/15 02:05:26;;;;;;;10.27;7.65;;;18.30;99.90;;;;;;5056841;28;20452;-65
2022/08/15 02:07:52;;;;;;;;;;;18.30;99.90;;;;;;5044623;28;20036;-65
2022/08/15 02:10:18;;;;;;;14.35;7.53;;;18.30;99.90;;;;;;5054914;28;19927;-64
2022/08/15 02:12:44;;;;;;;12.45;7.80;;;18.30;99.90;;;;;;5061967;28;20042;-65
2022/08/15 02:15:12;;;;;;;;;;;18.30;99.90;;;;;;5053827;28;20546;-65
2022/08/15 02:17:39;;;;;;;11.23;7.30;;;18.30;99.90;;;;;;5046168;28;20039;-65
2022/08/15 02:20:05;;;;;;;12.18;7.97;;;18.30;99.90;;;;;;5053772;28;20037;-65
2022/08/15 02:22:30;;;;;;;9.80;7.90;;;18.10;99.90;;;;;;5049601;28;20128;-65
2022/08/15 02:24:58;;;;;;;;;;;18.10;99.90;;;;;;5052822;28;20086;-65
2022/08/15 02:27:31;;;;;;;13.15;8.68;;;18.10;99.90;;;;;;5049319;28;20324;-65
2022/08/15 02:29:56;;;;;;;12.32;7.55;;;18.00;99.90;;;;;;5059044;28;20081;-66
2022/08/15 02:32:22;;;;;;;;;;;18.00;99.90;;;;;;5048509;28;20045;-65
2022/08/15 02:34:48;;;;;;;8.25;7.10;;;17.90;99.90;;;;;;5052776;28;19928;-65
2022/08/15 02:37:19;;;;;;;;;;;18.00;99.90;;;;;;5055235;28;20049;-65
2022/08/15 02:39:47;;;;;;;14.70;8.40;;;17.90;99.90;;;;;;5058373;28;19927;-66
2022/08/15 02:42:15;;;;;;;16.08;8.05;;;17.90;99.90;;;;;;5050063;28;20039;-65
2022/08/15 02:44:41;;;;;;;10.32;7.70;;;17.90;99.90;;;;;;5059332;28;20044;-64
2022/08/15 02:47:07;;;;;;;12.18;7.85;;;17.90;99.90;;;;;;5045659;28;20041;-65
2022/08/15 02:49:33;;;;;;;11.90;7.63;;;17.80;99.90;;;;;;5057259;28;20036;-65
2022/08/15 02:52:00;;;;;;;;;;;17.80;99.90;;;;;;5053595;28;20468;-64
2022/08/15 02:54:26;;;;;;;17.17;8.65;;;17.70;99.90;;;;;;5056203;28;20561;-65
2022/08/15 02:56:53;;;;;;;16.95;8.60;;;17.70;99.90;;;;;;5052261;28;20617;-65
2022/08/15 02:59:19;;;;;;;24.45;8.15;;;17.70;99.90;;;;;;5055523;28;20043;-66
2022/08/15 03:01:44;;;;;;;;;;;17.80;99.90;;;;;;5054451;28;20049;-65
2022/08/15 03:04:13;;;;;;;12.60;8.55;;;17.80;99.90;;;;;;5050037;28;19922;-66
2022/08/15 03:06:39;;;;;;;12.38;8.05;;;17.80;99.90;;;;;;5053337;28;20720;-65
2022/08/15 03:09:06;;;;;;;;;;;17.80;99.90;;;;;;5059110;28;20108;-65
2022/08/15 03:11:38;;;;;;;;;;;17.80;99.90;;;;;;5057058;28;20425;-65
2022/08/15 03:14:07;;;;;;;17.10;7.90;;;17.90;99.90;;;;;;5055097;28;19917;-65
2022/08/15 03:16:40;;;;;;;9.30;7.45;;;17.90;99.90;;;;;;5047233;28;20585;-64
2022/08/15 03:19:06;;;;;;;11.80;7.72;;;17.90;99.90;;;;;;5049796;28;20033;-64
2022/08/15 03:21:32;;;;;;;10.43;8.02;;;17.90;99.90;;;;;;5038496;28;20036;-64
2022/08/15 03:23:58;;;;;;;;;;;17.90;99.90;;;;;;5056112;28;20036;-63
2022/08/15 03:26:25;;;;;;;12.43;8.07;;;17.90;99.90;;;;;;5052071;28;19932;-64
2022/08/15 03:28:51;;;;;;;11.55;8.45;;;17.90;99.90;;;;;;5055182;28;20776;-63
2022/08/15 03:31:16;;;;;;;;;;;17.90;99.90;;;;;;5047078;28;20039;-64
2022/08/15 03:33:45;;;;;;;13.38;8.20;;;17.90;99.90;;;;;;5046856;28;20012;-64
2022/08/15 03:36:12;;;;;;;10.65;8.50;;;17.90;99.90;;;;;;5042907;28;20090;-64
2022/08/15 03:38:38;;;;;;;12.10;7.93;;;17.90;99.90;;;;;;5052934;28;20040;-64
2022/08/15 03:41:08;;;;;;;9.95;8.15;;;17.80;99.90;;;;;;5055627;28;20115;-63
2022/08/15 03:43:36;;;;;;;11.55;8.50;;;17.90;99.90;;;;;;5051843;28;20099;-62
2022/08/15 03:46:06;;;;;;;9.57;7.95;;;17.90;99.90;;;;;;5056705;28;20143;-62
2022/08/15 03:48:35;;;;;;;14.23;10.00;;;17.90;99.90;;;;;;5043991;28;20757;-64
2022/08/15 03:51:02;;;;;;;9.77;8.30;;;17.90;99.90;;;;;;5047186;28;20037;-63
2022/08/15 03:53:30;;;;;;;11.30;9.05;;;17.90;99.90;;;;;;5052853;28;20041;-64
2022/08/15 03:55:58;;;;;;;14.55;9.20;;;17.80;99.90;;;;;;5060605;28;20039;-62
2022/08/15 03:58:24;;;;;;;10.82;8.43;;;17.80;99.90;;;;;;5054846;28;20047;-64
2022/08/15 04:00:50;;;;;;;;;;;;;;;;;;5060804;28;20033;-64
2022/08/15 04:03:18;;;;;;;10.27;7.80;;;;;;;;;;5049921;28;19920;-64
2022/08/15 04:05:45;;;;;;;11.95;8.23;;;;;;;;;;5055145;28;20041;-63
2022/08/15 04:08:13;;;;;;;12.88;8.93;;;;;;;;;;5055188;28;20066;-63
2022/08/15 04:10:39;;;;;;;13.05;8.63;;;;;;;;;;5055569;28;20038;-62
2022/08/15 04:13:06;;;;;;;12.88;8.77;;;;;;;;;;5052539;28;20036;-64
2022/08/15 04:15:33;;;;;;;9.85;8.43;;;;;;;;;;5051652;28;20497;-63
2022/08/15 04:18:00;;;;;;;10.38;7.93;;;;;;;;;;5044173;28;20937;-63
2022/08/15 04:20:26;;;;;;;15.27;8.23;;;;;;;;;;5065072;28;20040;-62
2022/08/15 04:22:51;;;;;;;;;;;;;;;;;;5053596;28;20036;-63
2022/08/15 04:25:22;;;;;;;29.08;8.27;;;;;;;;;;5059104;28;19920;-64
2022/08/15 04:27:50;;;;;;;13.40;8.73;;;;;;;;;;5045899;28;20041;-63
2022/08/15 04:30:16;;;;;;;12.10;8.38;;;;;;;;;;5063693;28;20044;-63
2022/08/15 04:32:42;;;;;;;10.05;8.57;;;;;;;;;;5042463;28;20049;-63
2022/08/15 04:35:10;;;;;;;11.57;8.02;;;;;;;;;;5062195;28;20032;-67
2022/08/15 04:37:37;;;;;;;12.80;9.00;;;;;;;;;;5050388;28;20045;-65
2022/08/15 04:40:04;;;;;;;10.93;8.70;;;;;;;;;;5060576;28;20040;-65
2022/08/15 04:42:30;;;;;;;12.52;8.05;;;;;;;;;;5049739;28;20501;-65
2022/08/15 04:44:57;;;;;;;13.63;9.40;;;;;;;;;;5058200;28;20041;-65
2022/08/15 04:47:23;;;;;;;12.55;8.50;;;;;;;;;;5046289;28;20052;-65
2022/08/15 04:49:49;;;;;;;10.20;8.40;;;;;;;;;;5056393;28;20075;-65
2022/08/15 04:52:15;;;;;;;;;;;;;;;;;;5051433;28;20060;-64
2022/08/15 04:54:41;;;;;;;11.52;8.55;;;;;;;;;;5060640;28;20561;-63
2022/08/15 04:57:08;;;;;;;13.90;9.63;;;;;;;;;;5051245;28;20125;-65
2022/08/15 04:59:35;;;;;;;23.63;9.10;;;;;;;;;;5060728;28;20041;-65
2022/08/15 05:02:02;;;;;;;13.25;9.32;;;;;;;;;;5052653;28;20071;-65
2022/08/15 05:04:28;;;;;;;12.35;8.88;;;;;;;;;;5051206;28;20041;-64
2022/08/15 05:06:54;;;;;;;;;;;;;;;;;;5051045;28;20127;-61
2022/08/15 05:09:20;;;;;;;10.10;8.95;;;;;;;;;;5052280;28;19923;-61
2022/08/15 05:11:46;;;;;;;;;;;;;;;;;;5053760;28;20043;-61
2022/08/15 05:14:12;;;;;;;13.32;7.68;;;;;;;;;;5058443;28;19955;-64
2022/08/15 05:16:38;;;;;;;11.30;9.02;;;;;;;;;;5054010;28;20072;-65
2022/08/15 05:19:04;;;;;;;15.55;9.63;;;;;;;;;;5038761;28;20427;-63
2022/08/15 05:21:30;;;;;;;17.88;8.95;;;;;;;;;;5045684;28;20090;-63
2022/08/15 05:23:56;;;;;;;;;;;;;;;;;;5050229;28;20061;-63
2022/08/15 05:26:22;;;;;;;12.48;8.63;;;;;;;;;;5054979;28;19976;-63
2022/08/15 05:28:48;;;;;;;11.00;8.93;;;;;;;;;;5054508;28;20025;-63
2022/08/15 05:31:14;;;;;;;;;;;;;;;;;;5045304;28;20040;-63
2022/08/15 05:33:42;;;;;;;10.98;8.52;;;;;;;;;;5046848;28;19921;-64
2022/08/15 05:36:09;;;;;;;11.40;8.25;;;;;;;;;;5064834;28;20051;-63
2022/08/15 05:38:41;;;;;;;11.20;8.90;;;;;;;;;;5055448;28;20036;-64
2022/08/15 05:41:31;;;;;;;11.18;8.63;;;;;;;;;;5050645;28;20041;-65
2022/08/15 05:44:03;;;;;;;10.90;7.90;;;;;;;;;;5052812;28;20036;-63
2022/08/15 05:46:41;;;;;;;13.30;9.05;;;;;;;;;;5049736;28;20107;-63
2022/08/15 05:49:13;;;;;;;10.68;8.68;;;;;;;;;;5051015;28;20385;-63
2022/08/15 05:51:44;;;;;;;13.25;8.88;;;;;;;;;;5046684;28;20060;-63
2022/08/15 05:54:33;;;;;;;14.02;8.80;;;;;;;;;;5057331;28;20132;-63
2022/08/15 05:57:05;;;;;;;11.82;8.93;;;;;;;;;;5046028;28;20045;-64
2022/08/15 05:59:34;;;;;;;11.20;8.50;;;;;;;;;;5057758;28;20527;-64
2022/08/15 06:02:05;;;;;;;24.17;9.13;;;;;;;;;;5054387;28;20037;-63
2022/08/15 06:04:54;;;;;;;12.80;8.60;;;;;;;;;;5052980;28;20506;-63
2022/08/15 06:07:20;;;;;;;12.68;8.02;;;;;;;;;;5044403;28;20057;-65
2022/08/15 06:09:49;;;;;;;10.50;8.73;;;;;;;;;;5056851;28;20044;-64
2022/08/15 06:12:25;;;;;;;11.13;9.02;;;;;;;;;;5049815;28;20178;-65
2022/08/15 06:14:53;;;;;;;14.77;8.65;;;;;;;;;;5052641;28;20044;-64
2022/08/15 06:17:28;;;;;;;12.85;9.00;;;;;;;;;;5048966;28;20497;-65
2022/08/15 06:19:56;;;;;;;13.40;8.43;;;;;;;;;;5054906;28;20520;-66
2022/08/15 06:22:42;;;;;;;14.88;8.90;;;;;;;;;;5048677;28;20041;-64
2022/08/15 06:25:18;;;;;;;13.55;8.55;;;;;;;;;;5051300;28;20396;-65
2022/08/15 06:27:51;;;;;;;12.30;8.18;;;;;;;;;;5046961;28;20048;-65
2022/08/15 06:30:19;;;;;;;23.55;9.18;;;;;;;;;;5046265;28;20069;-65
2022/08/15 06:32:51;;;;;;;16.42;8.88;;;;;;;;;;5050736;28;20124;-65
2022/08/15 06:35:20;;;;;;;12.27;8.25;;;;;;;;;;5061811;28;20797;-68
2022/08/15 06:37:46;;;;;;;9.93;7.30;;;;;;;;;;5046864;28;20741;-66
2022/08/15 06:40:36;;;;;;;11.65;6.63;;;;;;;;;;5053166;28;20119;-65
2022/08/15 06:43:02;;;;;;;10.48;6.30;;;;;;;;;;5039541;28;20072;-63
2022/08/15 06:45:31;;;;;;;7.35;6.22;;;;;;;;;;5053702;28;20041;-64
2022/08/15 06:48:03;;;;;;;8.23;5.82;;;;;;;;;;5040181;28;20503;-65
2022/08/15 06:50:31;;;;;;;7.97;6.28;;;;;;;;;;5054542;28;20053;-64
2022/08/15 06:53:03;;;;;;;12.05;6.95;;;;;;;;;;5055568;28;20054;-63
2022/08/15 06:55:38;;;;;;;7.72;5.45;;;;;;;;;;5062496;28;20040;-63
2022/08/15 06:58:07;;;;;;;8.60;5.35;;;;;;;;;;5046735;28;20524;-63
2022/08/15 07:00:45;;;;;;;8.75;5.35;;;;;;;;;;5054817;28;20509;-64
2022/08/15 07:03:30;;;;;;;6.43;5.32;;;;;;;;;;5045996;28;20545;-63
2022/08/15 07:05:57;;;;;;;11.25;4.75;;;;;;;;;;5049281;28;20500;-64
2022/08/15 07:08:33;;;;;;;8.35;4.50;;;;;;;;;;5050411;28;20447;-64
2022/08/15 07:11:03;;;;;;;5.80;4.30;;;;;;;;;;5047721;28;20036;-65
2022/08/15 07:13:32;;;;;;;8.57;4.10;;;;;;;;;;5047114;28;20041;-64
2022/08/15 07:16:08;;;;;;;5.28;4.13;;;;;;;;;;5051055;28;20519;-65
2022/08/15 07:18:37;;;;;;;5.25;3.90;;;;;;;;;;5042541;28;20043;-64
2022/08/15 07:21:05;;;;;;;7.53;4.05;;;;;;;;;;5056780;28;20036;-64
2022/08/15 07:23:33;;;;;;;5.45;3.97;;;;;;;;;;5050197;28;20043;-62
2022/08/15 07:26:02;;;;;;;4.53;3.60;;;;;;;;;;5053763;28;20041;-62
2022/08/15 07:28:29;;;;;;;6.20;3.60;;;;;;;;;;5051857;28;20870;-65
2022/08/15 07:30:59;;;;;;;9.52;3.60;;;;;;;;;;5038395;28;20378;-63
2022/08/15 07:33:29;;;;;;;5.75;3.40;;;;;;;;;;5047545;28;20099;-65
2022/08/15 07:36:02;;;;;;;5.00;3.10;;;;;;;;;;5058566;28;20033;-65
2022/08/15 07:38:29;;;;;;;6.63;3.45;;;;;;;;;;5053522;28;20457;-65
2022/08/15 07:41:12;;;;;;;8.18;3.03;;;;;;;;;;5058751;28;20090;-65
2022/08/15 07:43:38;;;;;;;5.55;3.33;;;;;;;;;;5055587;28;20455;-65
2022/08/15 07:46:07;;;;;;;9.43;3.03;;;;;;;;;;5050878;28;20041;-65
2022/08/15 07:48:34;;;;;;;4.28;3.10;;;;;;;;;;5046960;28;20041;-65
2022/08/15 07:51:06;;;;;;;3.92;2.90;;;;;;;;;;5059030;28;20036;-65
2022/08/15 07:53:33;;;;;;;6.35;3.20;;;;;;;;;;5054151;28;20490;-65
2022/08/15 07:56:04;;;;;;;6.65;3.50;;;;;;;;;;5059589;28;20045;-65
2022/08/15 07:58:32;;;;;;;6.45;3.25;;;;;;;;;;5049653;28;20076;-62
2022/08/15 08:01:15;;;;;;;9.73;3.10;;;;;;;;;;5052987;28;20581;-63
2022/08/15 08:03:45;;;;;;;4.03;2.83;;;;;;;;;;5047513;28;20048;-62
2022/08/15 08:06:17;;;;;;;5.43;2.85;;;;;;;;;;5057586;28;20524;-63
2022/08/15 08:09:02;;;;;;;5.30;3.50;;;;;;;;;;5044966;28;20043;-65
2022/08/15 08:11:38;;;;;;;14.80;3.95;;;;;;;;;;5052851;28;20041;-65
2022/08/15 08:14:10;;;;;;;7.55;3.97;;;;;;;;;;5059553;28;20037;-65
2022/08/15 08:17:06;;;;;;;11.73;3.75;;;;;;;;;;5049189;28;20045;-64
2022/08/15 08:19:44;;;;;;;5.70;3.63;;;;;;;;;;5034476;28;20061;-65
2022/08/15 08:22:23;;;;;;;7.70;3.60;;;;;;;;;;5053033;28;20087;-65
2022/08/15 08:25:10;;;;;;;8.07;4.38;;;;;;;;;;5047111;28;20108;-64
2022/08/15 08:27:47;;;;;;;14.10;4.10;;;;;;;;;;5052642;28;20441;-64
2022/08/15 08:30:19;;;;;;;6.93;3.78;;;;;;;;;;5058626;28;20039;-65
2022/08/15 08:32:52;;;;;;;7.10;4.13;;;;;;;;;;5049581;28;20045;-65
2022/08/15 08:35:27;;;;;;;5.30;3.75;;;;;;;;;;5053519;28;20068;-64
2022/08/15 08:37:56;;;;;;;6.00;4.20;;;;;;;;;;5045377;28;20102;-64
2022/08/15 08:43:21;;;;;;;5.07;3.63;;;;;;;;;;5050219;28;20040;-65
2022/08/15 08:45:47;;;;;;;5.05;3.53;;;;;;;;;;5053123;28;20280;-65
2022/08/15 08:48:27;;;;;;;6.05;3.40;;;;;;;;;;5051624;28;20041;-64
2022/08/15 08:50:53;;;;;;;5.25;3.50;;;;;;;;;;5047886;28;20052;-64
2022/08/15 08:53:19;;;;;;;;;;;;;;;;;;5051987;28;20496;-65
2022/08/15 08:55:54;;;;;;;7.45;3.78;;;;;;;;;;5061319;28;19923;-64
2022/08/15 08:58:39;;;;;;;5.05;3.53;;;;;;;;;;5051145;28;20143;-65
2022/08/15 09:01:09;;;;;;;4.65;3.30;;;;;;;;;;5050594;28;20037;-65
2022/08/15 09:03:46;;;;;;;7.13;3.78;;;;;;;;;;5049660;28;20052;-65
2022/08/15 09:06:15;;;;;;;4.57;3.70;;;;;;;;;;5048513;28;20053;-65
2022/08/15 09:08:51;;;;;;;9.07;3.80;;;;;;;;;;5049258;28;20120;-65
2022/08/15 09:11:26;;;;;;;5.75;3.85;;;;;;;;;;5061984;28;20396;-65
2022/08/15 09:13:55;;;;;;;4.80;3.80;;;;;;;;;;5046538;28;20029;-65
2022/08/15 09:16:26;;;;;;;5.55;3.90;;;;;;;;;;5050078;28;20140;-65
2022/08/15 09:18:52;;;;;;;4.10;3.45;;;;;;;;;;5044208;28;20034;-65
2022/08/15 09:21:19;;;;;;;6.28;4.15;;;;;;;;;;5052736;28;20106;-65
2022/08/15 09:23:46;;;;;;;17.88;4.20;;;;;;;;;;5057256;28;20094;-65
2022/08/15 09:26:12;;;;;;;4.95;3.90;;;;;;;;;;5053114;28;20098;-65
2022/08/15 09:28:41;;;;;;;5.57;4.28;;;;;;;;;;5053774;28;20120;-65
2022/08/15 09:31:11;;;;;;;6.40;4.80;;;;;;;;;;5057713;28;20043;-65
2022/08/15 09:33:55;;;;;;;9.18;4.00;;;;;;;;;;5050457;28;20052;-65
2022/08/15 09:36:27;;;;;;;7.30;4.60;;;;;;;;;;5050154;28;20041;-65
2022/08/15 09:39:02;;;;;;;7.07;4.05;;;;;;;;;;5049797;28;20412;-65
2022/08/15 09:41:47;;;;;;;14.13;4.28;;;;;;;;;;5054677;28;20041;-65
2022/08/15 09:44:21;;;;;;;4.95;3.85;;;;;;;;;;5057390;28;20032;-65
2022/08/15 09:47:08;;;;;;;5.00;3.22;;;;;;;;;;5046197;28;20048;-65
2022/08/15 09:49:48;;;;;;;8.25;3.28;;;;;;;;;;5047427;28;20148;-65
2022/08/15 09:52:26;;;;;;;4.80;3.20;;;;;;;;;;5049711;28;20036;-66
2022/08/15 09:54:58;;;;;;;7.07;3.22;;;;;;;;;;5045520;28;20107;-65
2022/08/15 09:57:39;;;;;;;6.22;4.22;;;;;;;;;;5051029;28;20386;-65
2022/08/15 10:00:18;;;;;;;9.10;3.55;;;;;;;;;;5056623;28;20118;-65
2022/08/15 10:02:45;;;;;;;5.32;3.78;;;;;;;;;;5044232;28;20099;-65
2022/08/15 10:05:14;;;;;;;10.65;3.80;;;;;;;;;;5052798;28;20044;-65
2022/08/15 10:07:40;;;;;;;5.13;3.47;;;;;;;;;;5052342;28;20049;-62
2022/08/15 10:10:06;;;;;;;;;;;;;;;;;;5064879;28;20071;-64
2022/08/15 10:12:37;;;;;;;7.00;3.47;;;;;;;;;;5048837;28;19923;-64
2022/08/15 10:15:26;;;;;;;5.35;3.53;;;;;;;;;;5056653;28;20037;-64
2022/08/15 10:17:52;;;;;;;3.60;2.88;;;;;;;;;;5037776;28;20067;-65
2022/08/15 10:20:29;;;;;;;7.95;3.20;;;;;;;;;;5052491;28;20044;-65
2022/08/15 10:22:57;;;;;;;;;;;;;;;;;;5049767;28;20139;-64
2022/08/15 10:25:23;;;;;;;4.85;3.20;;;;;;;;;;5054719;28;19928;-64
2022/08/15 10:27:52;;;;;;;3.58;3.08;;;;;;;;;;5049810;28;20029;-64
2022/08/15 10:30:18;;;;;;;7.55;3.20;;;;;;;;;;5062288;28;20502;-64
2022/08/15 10:32:44;;;;;;;6.63;2.85;;;;;;;;;;5049335;28;20037;-65
2022/08/15 10:35:20;;;;;;;5.97;2.78;;;;;;;;;;5051677;28;20037;-64
2022/08/15 10:37:51;;;;;;;7.47;2.53;;;;;;;;;;5048610;28;20040;-62
2022/08/15 10:40:20;;;;;;;11.57;3.28;;;;;;;;;;5052340;28;20128;-64
2022/08/15 10:43:02;;;;;;;4.50;2.88;;;;;;;;;;5052229;28;20048;-65
2022/08/15 10:45:46;;;;;;;9.90;3.33;;;;;;;;;;5055453;28;20524;-64
2022/08/15 10:48:49;;;;;;;6.70;3.10;;;;;;;;;;5044130;28;20071;-62
2022/08/15 10:51:31;;;;;;;6.75;2.90;;;;;;;;;;4940021;29;20488;-63
2022/08/15 10:54:09;;;;;;;4.10;3.03;;;;;;;;;;5046550;28;20126;-61
2022/08/15 10:56:38;;;;;;;5.45;2.63;;;;;;;;;;5046145;28;20761;-61
2022/08/15 10:59:07;;;;;;;5.10;2.95;;;;;;;;;;5047653;28;20098;-63
2022/08/15 11:01:34;;;;;;;6.30;2.75;;;;;;;;;;5057749;28;20047;-62
2022/08/15 11:04:02;;;;;;;5.22;2.47;;;;;;;;;;5049305;28;20052;-61
2022/08/15 11:06:29;;;;;;;4.15;2.90;;;;;;;;;;5051964;28;20037;-63
2022/08/15 11:08:58;;;;;;;5.63;2.70;;;;;;;;;;5056722;28;20548;-63
2022/08/15 11:11:26;;;;;;;4.05;2.72;;;;;;;;;;5051829;28;20045;-63
2022/08/15 11:13:55;;;;;;;5.22;3.08;;;;;;;;;;5044063;28;20068;-63
2022/08/15 11:16:32;;;;;;;5.28;2.80;;;;;;;;;;5044745;28;20037;-63
2022/08/15 11:18:59;;;;;;;5.13;2.53;;;;;;;;;;5046954;28;20071;-63
2022/08/15 11:21:37;;;;;;;6.20;3.35;;;;;;;;;;5050926;28;20136;-64
2022/08/15 11:24:08;;;;;;;7.75;2.75;;;;;;;;;;5051540;28;20040;-63
2022/08/15 11:26:45;;;;;;;5.15;3.17;;;;;;;;;;5039477;28;20045;-63
2022/08/15 11:29:17;;;;;;;4.63;2.80;;;;;;;;;;5042532;28;20037;-62
2022/08/15 11:32:01;;;;;;;5.93;2.90;;;;;;;;;;5034949;28;20939;-63
2022/08/15 11:34:33;;;;;;;5.95;2.72;;;;;;;;;;5040889;28;20044;-63
2022/08/15 11:37:04;;;;;;;4.25;2.80;;;;;;;;;;5048009;28;20040;-63
2022/08/15 11:39:31;;;;;;;4.38;2.83;;;;;;;;;;5034932;28;20052;-63
2022/08/15 11:42:00;;;;;;;3.60;2.70;;;;;;;;;;5052749;28;20032;-63
2022/08/15 11:44:35;;;;;;;5.15;3.28;;;;;;;;;;5036512;28;20040;-63
2022/08/15 11:47:01;;;;;;;6.20;2.88;;;;;;;;;;5032545;28;20045;-63
2022/08/15 11:49:31;;;;;;;4.38;2.67;;;;;;;;;;5044273;28;20116;-63
2022/08/15 11:52:06;;;;;;;4.65;2.88;;;;;;;;;;5036694;28;20069;-63
2022/08/15 11:54:32;;;;;;;4.60;2.70;;;;;;;;;;5044568;28;20076;-63
2022/08/15 11:57:02;;;;;;;5.70;2.97;;;;;;;;;;5035569;28;20033;-63
2022/08/15 11:59:33;;;;;;;4.50;2.67;;;;;;;;;;5038499;28;20049;-63
2022/08/15 12:02:04;;;;;;;4.32;2.65;;;;;;;;;;5040764;28;20037;-63
2022/08/15 12:04:31;;;;;;;5.85;2.85;;;;;;;;;;5043350;28;20029;-63
2022/08/15 12:06:58;;;;;;;3.50;2.45;;;;;;;;;;5036675;28;20588;-63
2022/08/15 12:09:30;;;;;;;5.75;3.28;;;;;;;;;;5045187;28;20437;-63
2022/08/15 12:11:56;;;;;;;4.68;2.95;;;;;;;;;;5036476;28;20094;-63
2022/08/15 12:14:27;;;;;;;9.85;3.53;;;;;;;;;;5044261;28;20040;-63
2022/08/15 12:16:55;;;;;;;5.15;3.38;;;;;;;;;;5039596;28;20524;-63
2022/08/15 12:19:24;;;;;;;7.45;3.10;;;;;;;;;;5043708;28;20120;-63
2022/08/15 12:21:51;;;;;;;8.50;3.40;;;;;;;;;;5044352;28;20068;-63
2022/08/15 12:24:22;;;;;;;7.10;3.03;;;;;;;;;;5055369;28;20094;-63
2022/08/15 12:26:50;;;;;;;4.93;3.30;;;;;;;;;;5044120;28;20059;-63
2022/08/15 12:29:20;;;;;;;6.45;2.92;;;;;;;;;;5046083;28;20088;-63
2022/08/15 12:31:46;;;;;;;5.70;3.13;;;;;;;;;;5050129;28;20452;-63
2022/08/15 12:34:14;;;;;;;5.25;2.75;;;;;;;;;;5055068;28;20037;-63
2022/08/15 12:36:44;;;;;;;6.97;3.35;;;;;;;;;;5054708;28;20072;-63
2022/08/15 12:39:11;;;;;;;13.38;4.88;;;;;;;;;;5042800;28;20501;-63
2022/08/15 12:41:38;;;;;;;5.93;3.13;;;;;;;;;;5057784;28;20068;-63
2022/08/15 12:44:05;;;;;;;7.10;3.00;;;;;;;;;;5051408;28;20041;-63
2022/08/15 12:46:31;;;;;;;7.18;3.55;;;;;;;;;;5050497;28;20556;-63
2022/08/15 12:48:57;;;;;;;6.10;3.30;;;;;;;;;;5055034;28;20040;-63
2022/08/15 12:51:23;;;;;;;9.20;3.42;;;;;;;;;;5046977;28;20029;-64
2022/08/15 12:53:49;;;;;;;7.13;2.90;;;;;;;;;;5050532;28;20037;-64
2022/08/15 12:56:17;;;;;;;6.25;3.15;;;;;;;;;;5054570;28;20048;-63
2022/08/15 12:58:44;;;;;;;8.73;3.38;;;;;;;;;;5047545;28;20045;-63
2022/08/15 13:01:10;;;;;;;5.13;3.65;;;;;;;;;;5061166;28;20041;-62
2022/08/15 13:03:40;;;;;;;5.93;3.40;;;;;;;;;;5052039;28;20532;-64
2022/08/15 13:06:11;;;;;;;7.15;3.88;;;;;;;;;;5057890;28;20439;-64
2022/08/15 13:08:37;;;;;;;8.40;3.70;;;;;;;;;;5047864;28;20527;-66
2022/08/15 13:11:03;;;;;;;9.50;3.58;;;;;;;;;;5042889;28;20537;-62
2022/08/15 13:13:29;;;;;;;7.97;3.78;;;;;;;;;;5044970;28;20436;-62
2022/08/15 13:15:55;;;;;;;7.22;3.38;;;;;;;;;;5055515;28;20095;-62
2022/08/15 13:18:23;;;;;;;8.60;3.70;;;;;;;;;;5047075;28;20116;-62
2022/08/15 13:23:40;;;;;;;8.88;3.45;;;;;;;;;;5046348;28;20049;-62
2022/08/15 13:26:14;;;;;;;10.40;3.55;;;;;;;;;;5057023;28;20052;-62
2022/08/15 13:28:41;;;;;;;5.97;3.65;;;;;;;;;;5055584;28;20067;-64
2022/08/15 13:31:08;;;;;;;4.63;3.10;;;;;;;;;;5053060;28;20519;-63
2022/08/15 13:33:35;;;;;;;9.10;3.97;;;;;;;;;;5045117;28;20559;-64
2022/08/15 13:36:02;;;;;;;5.57;3.53;;;;;;;;;;5045442;28;20151;-63
2022/08/15 13:38:29;;;;;;;6.22;3.78;;;;;;;;;;5042393;28;20076;-60
2022/08/15 13:40:55;;;;;;;6.53;3.35;;;;;;;;;;5044142;28;20037;-64
2022/08/15 13:43:21;;;;;;;5.18;3.42;;;;;;;;;;5041290;28;20041;-64
2022/08/15 13:45:47;;;;;;;16.58;4.53;;;;;;;;;;5044586;28;20061;-64
2022/08/15 13:48:16;;;;;;;5.88;3.70;;;;;;;;;;5039581;28;20508;-64
2022/08/15 13:50:43;;;;;;;11.63;4.97;;;;;;;;;;5046413;28;20045;-64
2022/08/15 13:53:09;;;;;;;5.03;3.67;;;;;;;;;;5043214;28;20115;-64
2022/08/15 13:55:35;;;;;;;6.60;3.55;;;;;;;;;;5045424;28;20037;-65
2022/08/15 13:58:01;;;;;;;9.75;4.55;;;;;;;;;;5043130;28;20393;-64
2022/08/15 14:00:27;;;;;;;8.80;4.13;;;;;;;;;;5041381;28;20097;-64
2022/08/15 14:02:53;;;;;;;8.55;4.90;;;;;;;;;;5043352;28;20401;-63
2022/08/15 14:05:20;;;;;;;7.57;5.00;;;;;;;;;;5042887;28;20094;-64
2022/08/15 14:07:47;;;;;;;9.20;4.80;;;;;;;;;;5044166;28;20048;-63
2022/08/15 14:10:17;;;;;;;10.45;4.90;;;;;;;;;;5040667;28;20486;-63
2022/08/15 14:12:43;;;;;;;11.23;5.57;;;;;;;;;;5042086;28;20397;-64
2022/08/15 14:15:13;;;;;;;9.68;5.20;;;;;;;;;;5040134;28;20071;-63
2022/08/15 14:17:43;;;;;;;6.05;4.55;;;;;;;;;;5039552;28;20036;-63
2022/08/15 14:20:10;;;;;;;6.70;4.53;;;;;;;;;;5043587;28;20033;-64
2022/08/15 14:22:36;;;;;;;15.18;5.30;;;;;;;;;;5042219;28;20106;-64
2022/08/15 14:25:02;;;;;;;8.40;4.97;;;;;;;;;;5042110;28;20037;-64
2022/08/15 14:27:28;;;;;;;10.38;5.53;;;;;;;;;;5038579;28;20049;-64
2022/08/15 14:29:54;;;;;;;10.10;5.32;;;;;;;;;;5036506;28;20033;-63
2022/08/15 14:32:21;;;;;;;13.32;6.15;;;;;;;;;;5038909;28;20084;-64